sensor_id;sensor_type;location;lat;lon;timestamp;temperature;humidity
10276;DHT22;5183;51.190;6.820;2022-09-14T00:01:26;17.10;99.90
10276;DHT22;5183;51.190;6.820;2022-09-14T00:03:54;17.10;99.90
10276;DHT22;5183;51.190;6.820;2022-09-14T00:06:21;17.00;99.90
10276;DHT22;5183;51.190;6.820;2022-09-14T00:08:51;17.00;99.90
10276;DHT22;5183;51.190;6.820;2022-09-14T00:11:20;17.00;99.90
10276;DHT22;5183;51.190;6.820;2022-09-14T00:13:48;17.00;99.90
10276;DHT22;5183;51.190;6.820;2022-09-14T00:16:19;17.00;99.90
10276;DHT22;5183;51.190;6.820;2022-09-14T00:18:50;17.00;99.90
10276;DHT22;5183;51.190;6.820;2022-09-14T00:21:17;16.90;99.90
10276;DHT22;5183;51.190;6.820;2022-09-14T00:23:44;16.90;99.90
10276;DHT22;5183;51.190;6.820;2022-09-14T00:26:15;16.90;99.90
10276;DHT22;5183;51.190;6.820;2022-09-14T00:28:44;16.90;99.90
10276;DHT22;5183;51.190;6.820;2022-09-14T00:31:13;16.90;99.90
10276;DHT22;5183;51.190;6.820;2022-09-14T00:33:40;16.90;99.90
10276;DHT22;5183;51.190;6.820;2022-09-14T00:36:09;16.90;99.90
10276;DHT22;5183;51.190;6.820;2022-09-14T00:38:37;16.80;99.90
10276;DHT22;5183;51.190;6.820;2022-09-14T00:41:07;16.80;99.90
10276;DHT22;5183;51.190;6.820;2022-09-14T00:43:55;16.80;99.90
10276;DHT22;5183;51.190;6.820;2022-09-14T00:46:22;16.80;99.90
10276;DHT22;5183;51.190;6.820;2022-09-14T00:48:49;16.80;99.90
10276;DHT22;5183;51.190;6.820;2022-09-14T00:51:17;16.80;99.90
10276;DHT22;5183;51.190;6.820;2022-09-14T00:53:45;16.80;99.90
10276;DHT22;5183;51.190;6.820;2022-09-14T00:56:12;16.80;99.90
10276;DHT22;5183;51.190;6.820;2022-09-14T00:58:40;16.80;99.90
10276;DHT22;5183;51.190;6.820;2022-09-14T01:01:09;16.80;99.90
10276;DHT22;5183;51.190;6.820;2022-09-14T01:03:36;16.70;99.90
10276;DHT22;5183;51.190;6.820;2022-09-14T01:06:09;16.70;99.90
10276;DHT22;5183;51.190;6.820;2022-09-14T01:08:50;16.70;99.90
10276;DHT22;5183;51.190;6.820;2022-09-14T01:11:37;16.70;99.90
10276;DHT22;5183;51.190;6.820;2022-09-14T01:14:11;16.70;99.90
10276;DHT22;5183;51.190;6.820;2022-09-14T01:16:47;16.60;99.90
10276;DHT22;5183;51.190;6.820;2022-09-14T01:19:22;16.60;99.90
10276;DHT22;5183;51.190;6.820;2022-09-14T01:21:53;16.60;99.90
10276;DHT22;5183;51.190;6.820;2022-09-14T01:24:26;16.50;99.90
10276;DHT22;5183;51.190;6.820;2022-09-14T01:27:24;16.50;99.90
10276;DHT22;5183;51.190;6.820;2022-09-14T01:30:00;16.60;99.90
10276;DHT22;5183;51.190;6.820;2022-09-14T01:32:31;16.50;99.90
10276;DHT22;5183;51.190;6.820;2022-09-14T01:35:04;16.60;99.90
10276;DHT22;5183;51.190;6.820;2022-09-14T01:37:34;16.50;99.90
10276;DHT22;5183;51.190;6.820;2022-09-14T01:40:06;16.60;99.90
10276;DHT22;5183;51.190;6.820;2022-09-14T01:42:37;16.60;99.90
10276;DHT22;5183;51.190;6.820;2022-09-14T01:45:09;16.60;99.90
10276;DHT22;5183;51.190;6.820;2022-09-14T01:47:40;16.70;99.90
10276;DHT22;5183;51.190;6.820;2022-09-14T01:50:11;16.70;99.90
10276;DHT22;5183;51.190;6.820;2022-09-14T01:52:43;16.70;99.90
10276;DHT22;5183;51.190;6.820;2022-09-14T01:55:15;16.70;99.90
10276;DHT22;5183;51.190;6.820;2022-09-14T01:57:47;16.70;99.90
10276;DHT22;5183;51.190;6.820;2022-09-14T02:00:17;16.70;99.90
10276;DHT22;5183;51.190;6.820;2022-09-14T02:02:48;16.70;99.90
10276;DHT22;5183;51.190;6.820;2022-09-14T02:05:18;16.80;99.90
10276;DHT22;5183;51.190;6.820;2022-09-14T02:07:46;16.70;99.90
10276;DHT22;5183;51.190;6.820;2022-09-14T02:10:14;16.70;99.90
10276;DHT22;5183;51.190;6.820;2022-09-14T02:12:44;16.80;99.90
10276;DHT22;5183;51.190;6.820;2022-09-14T02:15:13;16.70;99.90
10276;DHT22;5183;51.190;6.820;2022-09-14T02:17:40;16.80;99.90
10276;DHT22;5183;51.190;6.820;2022-09-14T02:20:12;16.70;99.90
10276;DHT22;5183;51.190;6.820;2022-09-14T02:22:40;16.70;99.90
10276;DHT22;5183;51.190;6.820;2022-09-14T02:25:07;16.70;99.90
10276;DHT22;5183;51.190;6.820;2022-09-14T02:27:34;16.70;99.90
10276;DHT22;5183;51.190;6.820;2022-09-14T02:30:03;16.70;99.90
10276;DHT22;5183;51.190;6.820;2022-09-14T02:32:37;16.60;99.90
10276;DHT22;5183;51.190;6.820;2022-09-14T02:35:13;16.60;99.90
10276;DHT22;5183;51.190;6.820;2022-09-14T02:37:49;16.50;99.90
10276;DHT22;5183;51.190;6.820;2022-09-14T02:40:23;16.60;99.90
10276;DHT22;5183;51.190;6.820;2022-09-14T02:43:01;16.50;99.90
10276;DHT22;5183;51.190;6.820;2022-09-14T02:45:38;16.50;99.90
10276;DHT22;5183;51.190;6.820;2022-09-14T02:48:12;16.40;99.90
10276;DHT22;5183;51.190;6.820;2022-09-14T02:50:47;16.40;99.90
10276;DHT22;5183;51.190;6.820;2022-09-14T02:53:20;16.40;99.90
10276;DHT22;5183;51.190;6.820;2022-09-14T02:55:54;16.30;99.90
10276;DHT22;5183;51.190;6.820;2022-09-14T02:58:22;16.40;99.90
10276;DHT22;5183;51.190;6.820;2022-09-14T03:00:50;16.20;99.90
10276;DHT22;5183;51.190;6.820;2022-09-14T03:03:20;16.20;99.90
10276;DHT22;5183;51.190;6.820;2022-09-14T03:05:47;16.20;99.90
10276;DHT22;5183;51.190;6.820;2022-09-14T03:08:13;16.20;99.90
10276;DHT22;5183;51.190;6.820;2022-09-14T03:10:42;16.20;99.90
10276;DHT22;5183;51.190;6.820;2022-09-14T03:13:09;16.20;99.90
10276;DHT22;5183;51.190;6.820;2022-09-14T03:15:36;16.20;99.90
10276;DHT22;5183;51.190;6.820;2022-09-14T03:18:04;16.20;99.90
10276;DHT22;5183;51.190;6.820;2022-09-14T03:20:32;16.20;99.90
10276;DHT22;5183;51.190;6.820;2022-09-14T03:23:00;16.20;99.90
10276;DHT22;5183;51.190;6.820;2022-09-14T03:25:27;16.20;99.90
10276;DHT22;5183;51.190;6.820;2022-09-14T03:27:56;16.10;99.90
10276;DHT22;5183;51.190;6.820;2022-09-14T03:30:24;16.10;99.90
10276;DHT22;5183;51.190;6.820;2022-09-14T03:32:51;16.10;99.90
10276;DHT22;5183;51.190;6.820;2022-09-14T03:35:19;15.90;99.90
10276;DHT22;5183;51.190;6.820;2022-09-14T03:37:46;16.00;99.90
10276;DHT22;5183;51.190;6.820;2022-09-14T03:40:14;16.00;99.90
10276;DHT22;5183;51.190;6.820;2022-09-14T03:42:42;16.00;99.90
10276;DHT22;5183;51.190;6.820;2022-09-14T03:45:10;15.90;99.90
10276;DHT22;5183;51.190;6.820;2022-09-14T03:47:37;15.90;99.90
10276;DHT22;5183;51.190;6.820;2022-09-14T03:50:04;15.90;99.90
10276;DHT22;5183;51.190;6.820;2022-09-14T03:52:34;15.90;99.90
10276;DHT22;5183;51.190;6.820;2022-09-14T03:55:01;15.90;99.90
10276;DHT22;5183;51.190;6.820;2022-09-14T03:57:28;15.80;99.90
10276;DHT22;5183;51.190;6.820;2022-09-14T03:59:55;15.80;99.90
10276;DHT22;5183;51.190;6.820;2022-09-14T04:02:22;15.80;99.90
10276;DHT22;5183;51.190;6.820;2022-09-14T04:04:49;15.80;99.90
10276;DHT22;5183;51.190;6.820;2022-09-14T04:07:16;15.80;99.90
10276;DHT22;5183;51.190;6.820;2022-09-14T04:09:44;15.80;99.90
10276;DHT22;5183;51.190;6.820;2022-09-14T04:12:11;15.80;99.90
10276;DHT22;5183;51.190;6.820;2022-09-14T04:14:38;15.80;99.90
10276;DHT22;5183;51.190;6.820;2022-09-14T04:17:05;15.80;99.90
10276;DHT22;5183;51.190;6.820;2022-09-14T04:19:32;15.80;99.90
10276;DHT22;5183;51.190;6.820;2022-09-14T04:22:02;15.80;99.90
10276;DHT22;5183;51.190;6.820;2022-09-14T04:24:29;15.70;99.90
10276;DHT22;5183;51.190;6.820;2022-09-14T04:26:57;15.70;99.90
10276;DHT22;5183;51.190;6.820;2022-09-14T04:29:24;15.70;99.90
10276;DHT22;5183;51.190;6.820;2022-09-14T04:31:51;15.70;99.90
10276;DHT22;5183;51.190;6.820;2022-09-14T04:34:18;15.70;99.90
10276;DHT22;5183;51.190;6.820;2022-09-14T04:36:45;15.70;99.90
10276;DHT22;5183;51.190;6.820;2022-09-14T04:39:11;15.70;99.90
10276;DHT22;5183;51.190;6.820;2022-09-14T04:41:40;15.70;99.90
10276;DHT22;5183;51.190;6.820;2022-09-14T04:44:08;15.70;99.90
10276;DHT22;5183;51.190;6.820;2022-09-14T04:46:35;15.70;99.90
10276;DHT22;5183;51.190;6.820;2022-09-14T04:49:04;15.70;99.90
10276;DHT22;5183;51.190;6.820;2022-09-14T04:51:32;15.60;99.90
10276;DHT22;5183;51.190;6.820;2022-09-14T04:54:01;15.70;99.90
10276;DHT22;5183;51.190;6.820;2022-09-14T04:56:30;15.60;99.90
10276;DHT22;5183;51.190;6.820;2022-09-14T04:58:59;15.60;99.90
10276;DHT22;5183;51.190;6.820;2022-09-14T05:01:31;15.70;99.90
10276;DHT22;5183;51.190;6.820;2022-09-14T05:03:59;15.60;99.90
10276;DHT22;5183;51.190;6.820;2022-09-14T05:06:28;15.60;99.90
10276;DHT22;5183;51.190;6.820;2022-09-14T05:08:55;15.60;99.90
10276;DHT22;5183;51.190;6.820;2022-09-14T05:11:26;15.50;99.90
10276;DHT22;5183;51.190;6.820;2022-09-14T05:13:55;15.60;99.90
10276;DHT22;5183;51.190;6.820;2022-09-14T05:16:23;15.50;99.90
10276;DHT22;5183;51.190;6.820;2022-09-14T05:18:53;15.50;99.90
10276;DHT22;5183;51.190;6.820;2022-09-14T05:21:21;15.60;99.90
10276;DHT22;5183;51.190;6.820;2022-09-14T05:23:53;15.40;99.90
10276;DHT22;5183;51.190;6.820;2022-09-14T05:26:21;15.40;99.90
10276;DHT22;5183;51.190;6.820;2022-09-14T05:28:50;15.40;99.90
10276;DHT22;5183;51.190;6.820;2022-09-14T05:31:17;15.40;99.90
10276;DHT22;5183;51.190;6.820;2022-09-14T05:33:44;15.40;99.90
10276;DHT22;5183;51.190;6.820;2022-09-14T05:36:12;15.40;99.90
10276;DHT22;5183;51.190;6.820;2022-09-14T05:38:39;15.40;99.90
10276;DHT22;5183;51.190;6.820;2022-09-14T05:41:09;15.40;99.90
10276;DHT22;5183;51.190;6.820;2022-09-14T05:43:37;15.30;99.90
10276;DHT22;5183;51.190;6.820;2022-09-14T05:46:05;15.30;99.90
10276;DHT22;5183;51.190;6.820;2022-09-14T05:48:33;15.30;99.90
10276;DHT22;5183;51.190;6.820;2022-09-14T05:51:02;15.30;99.90
10276;DHT22;5183;51.190;6.820;2022-09-14T05:53:30;15.20;99.90
10276;DHT22;5183;51.190;6.820;2022-09-14T05:56:01;15.20;99.90
10276;DHT22;5183;51.190;6.820;2022-09-14T05:58:28;15.10;99.90
10276;DHT22;5183;51.190;6.820;2022-09-14T06:00:56;15.10;99.90
10276;DHT22;5183;51.190;6.820;2022-09-14T06:03:23;15.20;99.90
10276;DHT22;5183;51.190;6.820;2022-09-14T06:05:50;15.10;99.90
10276;DHT22;5183;51.190;6.820;2022-09-14T06:08:19;15.10;99.90
10276;DHT22;5183;51.190;6.820;2022-09-14T06:10:48;15.10;99.90
10276;DHT22;5183;51.190;6.820;2022-09-14T06:13:15;15.10;99.90
10276;DHT22;5183;51.190;6.820;2022-09-14T06:15:42;15.10;99.90
10276;DHT22;5183;51.190;6.820;2022-09-14T06:18:09;15.10;99.90
10276;DHT22;5183;51.190;6.820;2022-09-14T06:20:35;15.10;99.90
10276;DHT22;5183;51.190;6.820;2022-09-14T06:23:02;15.10;99.90
10276;DHT22;5183;51.190;6.820;2022-09-14T06:25:29;15.00;99.90
10276;DHT22;5183;51.190;6.820;2022-09-14T06:27:57;15.00;99.90
10276;DHT22;5183;51.190;6.820;2022-09-14T06:30:24;15.00;99.90
10276;DHT22;5183;51.190;6.820;2022-09-14T06:32:52;15.00;99.90
10276;DHT22;5183;51.190;6.820;2022-09-14T06:35:18;15.00;99.90
10276;DHT22;5183;51.190;6.820;2022-09-14T06:37:45;14.90;99.90
10276;DHT22;5183;51.190;6.820;2022-09-14T06:40:12;14.90;99.90
10276;DHT22;5183;51.190;6.820;2022-09-14T06:42:39;14.90;99.90
10276;DHT22;5183;51.190;6.820;2022-09-14T06:45:08;14.90;99.90
10276;DHT22;5183;51.190;6.820;2022-09-14T06:47:35;14.90;99.90
10276;DHT22;5183;51.190;6.820;2022-09-14T06:50:02;14.90;99.90
10276;DHT22;5183;51.190;6.820;2022-09-14T06:52:29;14.90;99.90
10276;DHT22;5183;51.190;6.820;2022-09-14T06:54:55;14.90;99.90
10276;DHT22;5183;51.190;6.820;2022-09-14T06:57:22;15.00;99.90
10276;DHT22;5183;51.190;6.820;2022-09-14T06:59:49;15.00;99.90
10276;DHT22;5183;51.190;6.820;2022-09-14T07:02:17;15.00;99.90
10276;DHT22;5183;51.190;6.820;2022-09-14T07:04:44;15.00;99.90
10276;DHT22;5183;51.190;6.820;2022-09-14T07:07:13;15.00;99.90
10276;DHT22;5183;51.190;6.820;2022-09-14T07:09:40;15.00;99.90
10276;DHT22;5183;51.190;6.820;2022-09-14T07:12:07;15.00;99.90
10276;DHT22;5183;51.190;6.820;2022-09-14T07:14:36;15.00;99.90
10276;DHT22;5183;51.190;6.820;2022-09-14T07:17:03;15.00;99.90
10276;DHT22;5183;51.190;6.820;2022-09-14T07:19:31;15.00;99.90
10276;DHT22;5183;51.190;6.820;2022-09-14T07:21:59;15.00;99.90
10276;DHT22;5183;51.190;6.820;2022-09-14T07:24:26;15.10;99.90
10276;DHT22;5183;51.190;6.820;2022-09-14T07:26:53;15.00;99.90
10276;DHT22;5183;51.190;6.820;2022-09-14T07:29:20;15.10;99.90
10276;DHT22;5183;51.190;6.820;2022-09-14T07:31:50;15.00;99.90
10276;DHT22;5183;51.190;6.820;2022-09-14T07:34:17;15.10;99.90
10276;DHT22;5183;51.190;6.820;2022-09-14T07:36:45;15.10;99.90
10276;DHT22;5183;51.190;6.820;2022-09-14T07:39:14;15.10;99.90
10276;DHT22;5183;51.190;6.820;2022-09-14T07:41:41;15.10;99.90
10276;DHT22;5183;51.190;6.820;2022-09-14T07:44:08;15.10;99.90
10276;DHT22;5183;51.190;6.820;2022-09-14T07:46:40;15.20;99.90
10276;DHT22;5183;51.190;6.820;2022-09-14T07:49:08;15.20;99.90
10276;DHT22;5183;51.190;6.820;2022-09-14T07:51:36;15.20;99.90
10276;DHT22;5183;51.190;6.820;2022-09-14T07:54:05;15.20;99.90
10276;DHT22;5183;51.190;6.820;2022-09-14T07:56:33;15.20;99.90
10276;DHT22;5183;51.190;6.820;2022-09-14T07:59:00;15.10;99.90
10276;DHT22;5183;51.190;6.820;2022-09-14T08:01:28;15.10;99.90
10276;DHT22;5183;51.190;6.820;2022-09-14T08:03:59;15.10;99.90
10276;DHT22;5183;51.190;6.820;2022-09-14T08:06:26;15.10;99.90
10276;DHT22;5183;51.190;6.820;2022-09-14T08:08:54;15.10;99.90
10276;DHT22;5183;51.190;6.820;2022-09-14T08:11:24;15.10;99.90
10276;DHT22;5183;51.190;6.820;2022-09-14T08:13:52;15.10;99.90
10276;DHT22;5183;51.190;6.820;2022-09-14T08:16:20;15.10;99.90
10276;DHT22;5183;51.190;6.820;2022-09-14T08:18:47;15.10;99.90
10276;DHT22;5183;51.190;6.820;2022-09-14T08:21:18;15.10;99.90
10276;DHT22;5183;51.190;6.820;2022-09-14T08:23:44;15.00;99.90
10276;DHT22;5183;51.190;6.820;2022-09-14T08:26:13;15.10;99.90
10276;DHT22;5183;51.190;6.820;2022-09-14T08:28:42;15.20;99.90
10276;DHT22;5183;51.190;6.820;2022-09-14T08:31:11;15.20;99.90
10276;DHT22;5183;51.190;6.820;2022-09-14T08:33:39;15.20;99.90
10276;DHT22;5183;51.190;6.820;2022-09-14T08:36:08;15.20;99.90
10276;DHT22;5183;51.190;6.820;2022-09-14T08:38:36;15.30;99.90
10276;DHT22;5183;51.190;6.820;2022-09-14T08:41:10;15.20;99.90
10276;DHT22;5183;51.190;6.820;2022-09-14T08:43:38;15.30;99.90
10276;DHT22;5183;51.190;6.820;2022-09-14T08:46:11;15.30;99.90
10276;DHT22;5183;51.190;6.820;2022-09-14T08:48:44;15.30;99.90
10276;DHT22;5183;51.190;6.820;2022-09-14T08:51:11;15.30;99.90
10276;DHT22;5183;51.190;6.820;2022-09-14T08:53:39;15.30;99.90
10276;DHT22;5183;51.190;6.820;2022-09-14T08:56:11;15.30;99.90
10276;DHT22;5183;51.190;6.820;2022-09-14T08:58:51;15.30;99.90
10276;DHT22;5183;51.190;6.820;2022-09-14T09:01:27;15.30;99.90
10276;DHT22;5183;51.190;6.820;2022-09-14T09:04:09;15.30;99.90
10276;DHT22;5183;51.190;6.820;2022-09-14T09:06:45;15.30;99.90
10276;DHT22;5183;51.190;6.820;2022-09-14T09:09:20;15.30;99.90
10276;DHT22;5183;51.190;6.820;2022-09-14T09:11:50;15.40;99.90
10276;DHT22;5183;51.190;6.820;2022-09-14T09:14:21;15.40;99.90
10276;DHT22;5183;51.190;6.820;2022-09-14T09:16:53;15.50;99.90
10276;DHT22;5183;51.190;6.820;2022-09-14T09:19:25;15.50;99.90
10276;DHT22;5183;51.190;6.820;2022-09-14T09:21:54;15.60;99.90
10276;DHT22;5183;51.190;6.820;2022-09-14T09:24:26;15.60;99.90
10276;DHT22;5183;51.190;6.820;2022-09-14T09:26:54;15.60;99.90
10276;DHT22;5183;51.190;6.820;2022-09-14T09:29:20;15.70;99.90
10276;DHT22;5183;51.190;6.820;2022-09-14T09:31:51;15.70;99.90
10276;DHT22;5183;51.190;6.820;2022-09-14T09:34:25;15.60;99.90
10276;DHT22;5183;51.190;6.820;2022-09-14T09:36:52;15.70;99.90
10276;DHT22;5183;51.190;6.820;2022-09-14T09:39:22;15.60;99.90
10276;DHT22;5183;51.190;6.820;2022-09-14T09:41:54;15.50;99.90
10276;DHT22;5183;51.190;6.820;2022-09-14T09:44:23;15.50;99.90
10276;DHT22;5183;51.190;6.820;2022-09-14T09:46:53;15.50;99.90
10276;DHT22;5183;51.190;6.820;2022-09-14T09:49:24;15.50;99.90
10276;DHT22;5183;51.190;6.820;2022-09-14T09:51:52;15.50;99.90
10276;DHT22;5183;51.190;6.820;2022-09-14T09:54:26;15.50;99.90
10276;DHT22;5183;51.190;6.820;2022-09-14T09:56:56;15.50;99.90
10276;DHT22;5183;51.190;6.820;2022-09-14T09:59:29;15.50;99.90
10276;DHT22;5183;51.190;6.820;2022-09-14T10:02:29;15.50;99.90
10276;DHT22;5183;51.190;6.820;2022-09-14T10:04:59;15.40;99.90
10276;DHT22;5183;51.190;6.820;2022-09-14T10:07:28;15.40;99.90
10276;DHT22;5183;51.190;6.820;2022-09-14T10:09:59;15.40;99.90
10276;DHT22;5183;51.190;6.820;2022-09-14T10:12:27;15.30;99.90
10276;DHT22;5183;51.190;6.820;2022-09-14T10:15:17;15.30;99.90
10276;DHT22;5183;51.190;6.820;2022-09-14T10:18:07;15.30;99.90
10276;DHT22;5183;51.190;6.820;2022-09-14T10:20:45;15.30;99.90
10276;DHT22;5183;51.190;6.820;2022-09-14T10:23:40;15.30;99.90
10276;DHT22;5183;51.190;6.820;2022-09-14T10:26:27;15.20;99.90
10276;DHT22;5183;51.190;6.820;2022-09-14T10:29:37;15.20;99.90
10276;DHT22;5183;51.190;6.820;2022-09-14T10:32:19;15.20;99.90
10276;DHT22;5183;51.190;6.820;2022-09-14T10:35:10;15.30;99.90
10276;DHT22;5183;51.190;6.820;2022-09-14T10:37:55;15.30;99.90
10276;DHT22;5183;51.190;6.820;2022-09-14T10:40:36;15.30;99.90
10276;DHT22;5183;51.190;6.820;2022-09-14T10:43:12;15.40;99.90
10276;DHT22;5183;51.190;6.820;2022-09-14T10:45:47;15.40;99.90
10276;DHT22;5183;51.190;6.820;2022-09-14T10:48:35;15.40;99.90
10276;DHT22;5183;51.190;6.820;2022-09-14T10:51:22;15.40;99.90
10276;DHT22;5183;51.190;6.820;2022-09-14T10:54:05;15.40;99.90
10276;DHT22;5183;51.190;6.820;2022-09-14T10:56:52;15.50;99.90
10276;DHT22;5183;51.190;6.820;2022-09-14T10:59:35;15.50;99.90
10276;DHT22;5183;51.190;6.820;2022-09-14T11:05:22;15.50;99.90
10276;DHT22;5183;51.190;6.820;2022-09-14T11:08:17;15.50;99.90
10276;DHT22;5183;51.190;6.820;2022-09-14T11:11:09;15.40;99.90
10276;DHT22;5183;51.190;6.820;2022-09-14T11:14:01;15.40;99.90
10276;DHT22;5183;51.190;6.820;2022-09-14T11:16:50;15.50;99.90
10276;DHT22;5183;51.190;6.820;2022-09-14T11:19:33;15.60;99.90
10276;DHT22;5183;51.190;6.820;2022-09-14T11:22:11;15.60;99.90
10276;DHT22;5183;51.190;6.820;2022-09-14T11:24:50;15.70;99.90
10276;DHT22;5183;51.190;6.820;2022-09-14T11:27:28;15.80;99.90
10276;DHT22;5183;51.190;6.820;2022-09-14T11:30:04;15.90;99.90
10276;DHT22;5183;51.190;6.820;2022-09-14T11:32:41;15.90;99.90
10276;DHT22;5183;51.190;6.820;2022-09-14T11:35:18;15.90;99.90
10276;DHT22;5183;51.190;6.820;2022-09-14T11:37:55;15.90;99.90
10276;DHT22;5183;51.190;6.820;2022-09-14T11:40:30;15.90;99.90
10276;DHT22;5183;51.190;6.820;2022-09-14T11:43:10;15.90;99.90
10276;DHT22;5183;51.190;6.820;2022-09-14T11:45:44;15.90;99.90
10276;DHT22;5183;51.190;6.820;2022-09-14T11:48:23;15.90;99.90
10276;DHT22;5183;51.190;6.820;2022-09-14T11:51:03;15.90;99.90
10276;DHT22;5183;51.190;6.820;2022-09-14T11:53:38;15.90;99.90
10276;DHT22;5183;51.190;6.820;2022-09-14T11:56:22;15.80;99.90
10276;DHT22;5183;51.190;6.820;2022-09-14T11:58:58;15.80;99.90
10276;DHT22;5183;51.190;6.820;2022-09-14T12:01:35;15.80;99.90
10276;DHT22;5183;51.190;6.820;2022-09-14T12:04:13;15.80;99.90
10276;DHT22;5183;51.190;6.820;2022-09-14T12:06:53;15.70;99.90
10276;DHT22;5183;51.190;6.820;2022-09-14T12:09:59;15.60;99.90
10276;DHT22;5183;51.190;6.820;2022-09-14T12:12:50;15.70;99.90
10276;DHT22;5183;51.190;6.820;2022-09-14T12:15:38;15.60;99.90
10276;DHT22;5183;51.190;6.820;2022-09-14T12:18:22;15.70;99.90
10276;DHT22;5183;51.190;6.820;2022-09-14T12:21:05;15.80;99.90
10276;DHT22;5183;51.190;6.820;2022-09-14T12:23:45;15.80;99.90
10276;DHT22;5183;51.190;6.820;2022-09-14T12:26:37;15.80;99.90
10276;DHT22;5183;51.190;6.820;2022-09-14T12:29:25;15.80;99.90
10276;DHT22;5183;51.190;6.820;2022-09-14T12:32:27;15.70;99.90
10276;DHT22;5183;51.190;6.820;2022-09-14T12:35:43;15.70;99.90
10276;DHT22;5183;51.190;6.820;2022-09-14T12:39:04;15.70;99.90
10276;DHT22;5183;51.190;6.820;2022-09-14T12:41:56;15.70;99.90
10276;DHT22;5183;51.190;6.820;2022-09-14T12:44:37;15.60;99.90
10276;DHT22;5183;51.190;6.820;2022-09-14T12:47:46;15.50;99.90
10276;DHT22;5183;51.190;6.820;2022-09-14T12:50:16;15.50;99.90
10276;DHT22;5183;51.190;6.820;2022-09-14T12:55:49;15.30;99.90
10276;DHT22;5183;51.190;6.820;2022-09-14T12:58:46;15.30;99.90
10276;DHT22;5183;51.190;6.820;2022-09-14T13:01:31;15.30;99.90
10276;DHT22;5183;51.190;6.820;2022-09-14T13:04:01;15.30;99.90
10276;DHT22;5183;51.190;6.820;2022-09-14T13:06:34;15.30;99.90
10276;DHT22;5183;51.190;6.820;2022-09-14T13:09:15;15.40;99.90
10276;DHT22;5183;51.190;6.820;2022-09-14T13:11:45;15.50;99.90
10276;DHT22;5183;51.190;6.820;2022-09-14T13:14:15;15.50;99.90
10276;DHT22;5183;51.190;6.820;2022-09-14T13:16:49;15.50;99.90
10276;DHT22;5183;51.190;6.820;2022-09-14T13:19:23;15.50;99.90
10276;DHT22;5183;51.190;6.820;2022-09-14T13:21:52;15.60;99.90
10276;DHT22;5183;51.190;6.820;2022-09-14T13:24:25;15.50;99.90
10276;DHT22;5183;51.190;6.820;2022-09-14T13:26:55;15.50;99.90
10276;DHT22;5183;51.190;6.820;2022-09-14T13:29:22;15.50;99.90
10276;DHT22;5183;51.190;6.820;2022-09-14T13:31:54;15.50;99.90
10276;DHT22;5183;51.190;6.820;2022-09-14T13:34:24;15.40;99.90
10276;DHT22;5183;51.190;6.820;2022-09-14T13:36:52;15.50;99.90
10276;DHT22;5183;51.190;6.820;2022-09-14T13:39:24;15.30;99.90
10276;DHT22;5183;51.190;6.820;2022-09-14T13:41:53;15.30;99.90
10276;DHT22;5183;51.190;6.820;2022-09-14T13:44:24;15.30;99.90
10276;DHT22;5183;51.190;6.820;2022-09-14T13:46:54;15.30;99.90
10276;DHT22;5183;51.190;6.820;2022-09-14T13:49:22;15.30;99.90
10276;DHT22;5183;51.190;6.820;2022-09-14T13:51:49;15.30;99.90
10276;DHT22;5183;51.190;6.820;2022-09-14T13:54:19;15.30;99.90
10276;DHT22;5183;51.190;6.820;2022-09-14T13:57:10;15.20;99.90
10276;DHT22;5183;51.190;6.820;2022-09-14T14:00:04;15.10;99.90
10276;DHT22;5183;51.190;6.820;2022-09-14T14:02:34;15.10;99.90
10276;DHT22;5183;51.190;6.820;2022-09-14T14:05:02;15.10;99.90
10276;DHT22;5183;51.190;6.820;2022-09-14T14:07:32;15.10;99.90
10276;DHT22;5183;51.190;6.820;2022-09-14T14:10:00;15.20;99.90
10276;DHT22;5183;51.190;6.820;2022-09-14T14:12:30;15.30;99.90
10276;DHT22;5183;51.190;6.820;2022-09-14T14:14:59;15.30;99.90
10276;DHT22;5183;51.190;6.820;2022-09-14T14:17:33;15.40;99.90
10276;DHT22;5183;51.190;6.820;2022-09-14T14:20:32;15.40;99.90
10276;DHT22;5183;51.190;6.820;2022-09-14T14:23:13;15.40;99.90
10276;DHT22;5183;51.190;6.820;2022-09-14T14:25:43;15.30;99.90
10276;DHT22;5183;51.190;6.820;2022-09-14T14:28:15;15.10;99.90
10276;DHT22;5183;51.190;6.820;2022-09-14T14:30:43;15.20;99.90
10276;DHT22;5183;51.190;6.820;2022-09-14T14:33:13;15.20;99.90
10276;DHT22;5183;51.190;6.820;2022-09-14T14:35:43;15.30;99.90
10276;DHT22;5183;51.190;6.820;2022-09-14T14:38:10;15.30;99.90
10276;DHT22;5183;51.190;6.820;2022-09-14T14:40:38;15.40;99.90
10276;DHT22;5183;51.190;6.820;2022-09-14T14:43:06;15.50;99.90
10276;DHT22;5183;51.190;6.820;2022-09-14T14:45:33;15.50;99.90
10276;DHT22;5183;51.190;6.820;2022-09-14T14:48:00;15.60;99.90
10276;DHT22;5183;51.190;6.820;2022-09-14T14:50:30;15.60;99.90
10276;DHT22;5183;51.190;6.820;2022-09-14T14:52:58;15.60;99.90
10276;DHT22;5183;51.190;6.820;2022-09-14T14:55:26;15.70;99.90
10276;DHT22;5183;51.190;6.820;2022-09-14T14:57:58;15.60;99.90
10276;DHT22;5183;51.190;6.820;2022-09-14T15:00:26;15.70;99.90
10276;DHT22;5183;51.190;6.820;2022-09-14T15:02:53;15.70;99.90
10276;DHT22;5183;51.190;6.820;2022-09-14T15:05:20;15.80;99.90
10276;DHT22;5183;51.190;6.820;2022-09-14T15:07:48;15.90;99.90
10276;DHT22;5183;51.190;6.820;2022-09-14T15:10:17;15.90;99.90
10276;DHT22;5183;51.190;6.820;2022-09-14T15:12:44;16.00;99.90
10276;DHT22;5183;51.190;6.820;2022-09-14T15:15:12;16.20;99.90
10276;DHT22;5183;51.190;6.820;2022-09-14T15:17:39;16.20;99.90
10276;DHT22;5183;51.190;6.820;2022-09-14T15:20:07;16.20;99.90
10276;DHT22;5183;51.190;6.820;2022-09-14T15:22:34;16.30;99.90
10276;DHT22;5183;51.190;6.820;2022-09-14T15:25:03;16.40;99.90
10276;DHT22;5183;51.190;6.820;2022-09-14T15:27:31;16.50;99.90
10276;DHT22;5183;51.190;6.820;2022-09-14T15:29:58;16.50;99.90
10276;DHT22;5183;51.190;6.820;2022-09-14T15:32:25;16.50;99.90
10276;DHT22;5183;51.190;6.820;2022-09-14T15:34:52;16.60;99.90
10276;DHT22;5183;51.190;6.820;2022-09-14T15:37:19;16.60;99.90
10276;DHT22;5183;51.190;6.820;2022-09-14T15:39:46;16.50;99.90
10276;DHT22;5183;51.190;6.820;2022-09-14T15:42:16;16.40;99.90
10276;DHT22;5183;51.190;6.820;2022-09-14T15:44:43;16.40;99.90
10276;DHT22;5183;51.190;6.820;2022-09-14T15:47:10;16.30;99.90
10276;DHT22;5183;51.190;6.820;2022-09-14T15:49:39;16.20;99.90
10276;DHT22;5183;51.190;6.820;2022-09-14T15:52:07;16.20;99.90
10276;DHT22;5183;51.190;6.820;2022-09-14T15:54:36;16.20;99.90
10276;DHT22;5183;51.190;6.820;2022-09-14T15:57:05;16.10;99.90
10276;DHT22;5183;51.190;6.820;2022-09-14T15:59:34;16.20;99.90
10276;DHT22;5183;51.190;6.820;2022-09-14T16:02:01;16.30;99.90
10276;DHT22;5183;51.190;6.820;2022-09-14T16:04:29;16.40;99.90
10276;DHT22;5183;51.190;6.820;2022-09-14T16:06:59;16.50;99.90
10276;DHT22;5183;51.190;6.820;2022-09-14T16:09:26;16.50;99.90
10276;DHT22;5183;51.190;6.820;2022-09-14T16:11:53;16.50;99.90
10276;DHT22;5183;51.190;6.820;2022-09-14T16:14:20;16.60;99.90
10276;DHT22;5183;51.190;6.820;2022-09-14T16:16:48;16.70;99.90
10276;DHT22;5183;51.190;6.820;2022-09-14T16:19:15;16.60;99.90
10276;DHT22;5183;51.190;6.820;2022-09-14T16:21:42;16.60;99.90